createdAt,value
2022-12-26T00:00:00.506Z,108.5
2022-12-26T00:01:07.680Z,106.6
2022-12-26T00:02:14.827Z,95.9
2022-12-26T00:05:56.948Z,112.6
2022-12-26T00:07:04.130Z,106.2
2022-12-26T00:08:11.354Z,103.9
2022-12-26T00:09:18.505Z,97.8
2022-12-26T00:11:05.281Z,97.8
2022-12-26T00:12:12.323Z,110.8
2022-12-26T00:13:37.752Z,99.7
2022-12-26T00:14:26.345Z,106
2022-12-26T00:15:33.327Z,95.3
2022-12-26T00:17:11.588Z,95.3
2022-12-26T00:18:18.539Z,84
2022-12-26T00:19:25.676Z,64.6
2022-12-26T00:20:32.844Z,59.8
2022-12-26T00:21:40.008Z,55.5
2022-12-26T00:29:07.463Z,40.6
2022-12-26T00:30:14.679Z,42
2022-12-26T00:31:22.008Z,39.4
2022-12-26T00:32:28.951Z,38.4
2022-12-26T00:34:01.029Z,38.4
2022-12-26T00:35:07.976Z,37.5
2022-12-26T00:36:15.063Z,35.6
2022-12-26T00:37:24.819Z,35.2
2022-12-26T00:38:32.125Z,36.1
2022-12-26T00:40:01.166Z,36.1
2022-12-26T00:41:08.473Z,37.7
2022-12-26T00:42:15.814Z,38.6
2022-12-26T00:43:23.030Z,38.3
2022-12-26T00:44:30.029Z,39.9
2022-12-26T00:48:06.012Z,43.3
2022-12-26T00:49:13.371Z,44.6
2022-12-26T00:50:20.551Z,43.2
2022-12-26T00:51:27.516Z,46.6
2022-12-26T00:56:11.991Z,46.6
2022-12-26T00:57:18.924Z,43.4
2022-12-26T00:58:26.062Z,42
2022-12-26T00:59:33.262Z,43.2
2022-12-26T01:00:40.413Z,40.4
2022-12-26T01:08:20.756Z,42.3
2022-12-26T01:08:47.888Z,40.8
2022-12-26T01:09:55.146Z,42.1
2022-12-26T01:11:02.240Z,40.4
2022-12-26T01:12:23.928Z,36.7
2022-12-26T01:13:30.882Z,37.4
2022-12-26T01:14:38.031Z,40.7
2022-12-26T01:15:44.830Z,39.3
2022-12-26T01:16:52.116Z,39.5
2022-12-26T01:20:40.172Z,42
2022-12-26T01:21:47.427Z,40.1
2022-12-26T01:22:54.659Z,41.7
2022-12-26T01:24:01.781Z,39.9
2022-12-26T01:26:16.168Z,39.9
2022-12-26T01:26:59.244Z,44
2022-12-26T01:28:06.422Z,49.9
2022-12-26T01:29:13.653Z,48.5
2022-12-26T01:30:21.071Z,45.9
2022-12-26T01:31:30.307Z,45
2022-12-26T01:32:37.151Z,41.1
2022-12-26T01:33:44.047Z,40.3
2022-12-26T01:34:51.245Z,41.8
2022-12-26T01:35:58.400Z,36
2022-12-26T01:37:08.213Z,38.7
2022-12-26T01:38:15.319Z,36.2
2022-12-26T01:39:22.427Z,33.5
2022-12-26T01:40:29.649Z,34
2022-12-26T01:41:36.828Z,31.9
2022-12-26T01:43:31.912Z,31.9
2022-12-26T01:44:44.203Z,34.3
2022-12-26T01:45:59.081Z,32.9
2022-12-26T01:47:06.224Z,34.7
2022-12-26T01:48:13.347Z,34.9
2022-12-26T01:49:27.993Z,31.1
2022-12-26T01:50:37.975Z,29.6
2022-12-26T01:51:47.361Z,30.4
2022-12-26T01:52:54.499Z,30.2
2022-12-26T01:54:38.893Z,30.2
2022-12-26T01:55:08.855Z,29.9
2022-12-26T01:56:16.230Z,29.8
2022-12-26T01:57:25.733Z,31.6
2022-12-26T01:58:38.037Z,33.4
2022-12-26T01:59:51.238Z,31.6
2022-12-26T02:00:58.358Z,29.5
2022-12-26T02:02:05.528Z,31.1
2022-12-26T02:03:12.591Z,30.6
2022-12-26T02:04:24.805Z,32.3
2022-12-26T02:05:47.005Z,29.8
2022-12-26T02:06:54.328Z,29.3
2022-12-26T02:08:01.383Z,30.3
2022-12-26T02:09:14.158Z,28.9
2022-12-26T02:10:21.362Z,31.8
2022-12-26T02:11:34.016Z,26.5
2022-12-26T02:12:41.346Z,29.3
2022-12-26T02:13:48.633Z,27.7
2022-12-26T02:14:55.712Z,26.3
2022-12-26T02:16:03.292Z,26.1
2022-12-26T02:17:15.664Z,26.1
2022-12-26T02:18:22.881Z,28
2022-12-26T02:19:29.986Z,25.6
2022-12-26T02:20:47.166Z,29.5
2022-12-26T02:22:04.466Z,25.3
2022-12-26T02:24:15.478Z,25.3
2022-12-26T02:25:30.517Z,24.1
2022-12-26T02:26:45.548Z,23.5
2022-12-26T02:27:57.880Z,23.7
2022-12-26T02:29:07.571Z,22.7
2022-12-26T02:30:50.866Z,22.7
2022-12-26T02:31:57.956Z,21.7
2022-12-26T02:33:12.678Z,19.5
2022-12-26T02:34:22.307Z,22.4
2022-12-26T02:35:34.652Z,20.6
2022-12-26T02:36:46.741Z,19.4
2022-12-26T02:38:01.444Z,21.1
2022-12-26T02:39:42.865Z,19.4
2022-12-26T02:40:25.946Z,20.6
2022-12-26T02:42:06.704Z,20.6
2022-12-26T02:43:21.419Z,21.3
2022-12-26T02:44:33.637Z,19.3
2022-12-26T02:45:53.925Z,22.6
2022-12-26T02:47:19.975Z,20.8
2022-12-26T02:48:27.196Z,19.7
2022-12-26T02:49:40.546Z,20.3
2022-12-26T02:51:03.066Z,19.9
2022-12-26T02:55:15.460Z,19.5
2022-12-26T02:56:27.834Z,20.5
2022-12-26T02:57:40.029Z,18.6
2022-12-26T03:02:12.107Z,18.8
2022-12-26T03:03:27.051Z,19.7
2022-12-26T03:04:39.026Z,18.3
2022-12-26T03:05:51.498Z,16.9
2022-12-26T03:07:38.585Z,16.9
2022-12-26T03:08:50.916Z,17
2022-12-26T03:10:10.924Z,16.7
2022-12-26T03:11:23.175Z,15.9
2022-12-26T03:12:35.531Z,18.3
2022-12-26T03:14:24.843Z,18.3
2022-12-26T03:15:40.089Z,16
2022-12-26T03:16:52.660Z,18.4
2022-12-26T03:18:04.761Z,16.9
2022-12-26T03:19:11.944Z,17.8
2022-12-26T03:20:47.129Z,17.8
2022-12-26T03:21:54.090Z,18.7
2022-12-26T03:23:01.236Z,20
2022-12-26T03:24:16.686Z,17.4
2022-12-26T03:25:23.862Z,17.1
2022-12-26T03:26:57.433Z,17
2022-12-26T03:28:04.367Z,19.6
2022-12-26T03:29:15.653Z,20
2022-12-26T03:30:23.914Z,19.2
2022-12-26T03:31:36.045Z,18.9
2022-12-26T03:32:52.251Z,20.2
2022-12-26T03:33:59.234Z,18
2022-12-26T03:35:11.593Z,18.3
2022-12-26T03:36:18.709Z,19.2
2022-12-26T03:37:48.114Z,17
2022-12-26T03:38:49.038Z,16.4
2022-12-26T03:39:56.201Z,18.1
2022-12-26T03:41:18.940Z,20.2
2022-12-26T03:42:31.090Z,16.5
2022-12-26T03:43:46.295Z,17.2
2022-12-26T03:45:06.600Z,19.3
2022-12-26T03:46:29.279Z,17.8
2022-12-26T03:48:17.029Z,17.8
2022-12-26T03:49:39.778Z,21.8
2022-12-26T03:50:51.759Z,18.2
2022-12-26T03:52:14.305Z,18.9
2022-12-26T03:53:43.714Z,15.9
2022-12-26T03:54:55.951Z,16.4
2022-12-26T03:56:18.424Z,17.2
2022-12-26T03:57:38.416Z,16.2
2022-12-26T03:59:27.879Z,16.2
2022-12-26T04:00:48.263Z,14.8
2022-12-26T04:02:00.805Z,14.3
2022-12-26T04:03:12.887Z,16.5
2022-12-26T04:04:25.194Z,15.1
2022-12-26T04:06:30.858Z,15.1
2022-12-26T04:07:55.715Z,14.7
2022-12-26T04:08:54.959Z,12.3
2022-12-26T04:10:07.234Z,12.5
2022-12-26T04:11:25.671Z,12.6
2022-12-26T04:15:19.522Z,12.2
2022-12-26T04:16:31.777Z,10.6
2022-12-26T04:17:54.505Z,11.3
2022-12-26T04:19:56.727Z,11.3
2022-12-26T04:21:08.822Z,11.3
2022-12-26T04:22:21.072Z,10.8
2022-12-26T04:23:38.620Z,11.9
2022-12-26T04:24:50.976Z,12.1
2022-12-26T04:26:13.498Z,11.4
2022-12-26T04:27:25.954Z,12.6
2022-12-26T04:28:37.999Z,11.1
2022-12-26T04:29:50.602Z,10.6
2022-12-26T04:31:05.339Z,12.7
2022-12-26T04:32:17.486Z,13
2022-12-26T04:33:34.906Z,15.5
2022-12-26T04:34:46.896Z,14.1
2022-12-26T04:36:38.601Z,14.1
2022-12-26T04:37:53.545Z,16.6
2022-12-26T04:39:05.788Z,14.6
2022-12-26T04:40:18.112Z,14.1
2022-12-26T04:41:30.293Z,14.2
2022-12-26T04:43:46.333Z,14.2
2022-12-26T04:44:32.965Z,13
2022-12-26T04:45:40.071Z,13
2022-12-26T04:46:47.090Z,11.8
2022-12-26T04:47:54.249Z,11.8
2022-12-26T04:49:43.288Z,11.8
2022-12-26T04:50:55.793Z,13.4
2022-12-26T04:52:02.829Z,12.5
2022-12-26T04:53:09.952Z,11.3
2022-12-26T04:54:17.123Z,12.5
2022-12-26T04:56:00.304Z,12.5
2022-12-26T04:57:07.483Z,12.8
2022-12-26T04:58:14.595Z,11.9
2022-12-26T04:59:21.794Z,14.2
2022-12-26T05:00:29.043Z,12.4
2022-12-26T05:02:14.397Z,12.4
2022-12-26T05:03:26.484Z,12.8
2022-12-26T05:04:38.644Z,11.1
2022-12-26T05:05:51.466Z,11.9
2022-12-26T05:07:03.401Z,11.5
2022-12-26T05:08:31.777Z,9.7
2022-12-26T05:09:44.112Z,9.8
2022-12-26T05:10:53.716Z,11.3
2022-12-26T05:12:01.042Z,11
2022-12-26T05:13:08.045Z,11.8
2022-12-26T05:20:21.485Z,12.1
2022-12-26T05:21:33.592Z,12.5
2022-12-26T05:22:45.568Z,15.2
2022-12-26T05:23:57.823Z,13.1
2022-12-26T05:25:32.136Z,13.1
2022-12-26T05:26:44.566Z,15.6
2022-12-26T05:27:56.818Z,14.2
2022-12-26T05:29:09.217Z,13.7
2022-12-26T05:30:16.347Z,14.1
2022-12-26T05:31:37.784Z,12.6
2022-12-26T05:32:44.656Z,10
2022-12-26T05:33:56.932Z,12.2
2022-12-26T05:35:09.275Z,13.4
2022-12-26T05:36:16.377Z,12.3
2022-12-26T05:37:33.733Z,11.7
2022-12-26T05:38:40.983Z,11.9
2022-12-26T05:39:47.945Z,10.6
2022-12-26T05:40:55.027Z,11.9
2022-12-26T05:42:02.161Z,10.9
2022-12-26T05:43:29.028Z,12
2022-12-26T05:44:35.918Z,11.2
2022-12-26T05:45:43.245Z,11.8
2022-12-26T05:46:50.542Z,12.2
2022-12-26T05:47:57.565Z,11.3
2022-12-26T05:49:35.683Z,11.3
2022-12-26T05:50:42.692Z,12.6
2022-12-26T05:51:50.080Z,15.7
2022-12-26T05:52:57.113Z,12.5
2022-12-26T05:54:04.264Z,14.1
2022-12-26T05:57:29.382Z,13.2
2022-12-26T05:58:36.649Z,11.6
2022-12-26T05:59:43.394Z,12
2022-12-26T06:00:50.522Z,15.1
2022-12-26T06:02:41.033Z,15.1
2022-12-26T06:03:48.097Z,13.9
2022-12-26T06:04:55.246Z,13
2022-12-26T06:06:02.279Z,12.6
2022-12-26T06:07:09.595Z,13.1
2022-12-26T06:08:16.644Z,11.8
2022-12-26T06:09:23.852Z,12.3
2022-12-26T06:10:31.004Z,11.7
2022-12-26T06:11:40.432Z,11.4
2022-12-26T06:12:45.378Z,10.7
2022-12-26T06:13:52.188Z,11.3
2022-12-26T06:14:59.602Z,10.7
2022-12-26T06:16:07.150Z,12.1
2022-12-26T06:17:14.440Z,10.7
2022-12-26T06:18:30.063Z,15.1
2022-12-26T06:19:41.592Z,11.2
2022-12-26T06:20:44.037Z,11.5
2022-12-26T06:21:51.245Z,12.2
2022-12-26T06:22:58.436Z,10.9
2022-12-26T06:24:08.280Z,14.3
2022-12-26T06:25:15.227Z,12.7
2022-12-26T06:26:22.410Z,11.1
2022-12-26T06:27:29.562Z,11.4
2022-12-26T06:28:36.781Z,11.3
2022-12-26T06:29:43.596Z,12.2
2022-12-26T06:30:50.805Z,12.6
2022-12-26T06:31:58.077Z,10.9
2022-12-26T06:33:05.156Z,11.2
2022-12-26T06:34:12.274Z,11.6
2022-12-26T06:35:19.445Z,11.9
2022-12-26T06:36:26.609Z,11.3
2022-12-26T06:37:33.801Z,11.6
2022-12-26T06:38:44.318Z,13.1
2022-12-26T06:39:51.425Z,13.6
2022-12-26T06:40:58.753Z,11.4
2022-12-26T06:42:05.760Z,12.9
2022-12-26T06:43:12.874Z,12.6
2022-12-26T06:44:21.313Z,14.3
2022-12-26T06:45:28.158Z,13.1
2022-12-26T06:46:35.564Z,14.5
2022-12-26T06:47:42.647Z,16.8
2022-12-26T06:48:49.867Z,15.5
2022-12-26T06:49:57.080Z,14.8
2022-12-26T06:51:04.177Z,12.6
2022-12-26T06:52:11.341Z,14
2022-12-26T06:53:18.535Z,13.4
2022-12-26T06:54:27.327Z,16
2022-12-26T06:55:34.875Z,14.6
2022-12-26T06:56:42.000Z,14.4
2022-12-26T06:57:48.832Z,16
2022-12-26T06:58:56.043Z,12.7
2022-12-26T07:00:03.164Z,13.1
2022-12-26T07:01:10.518Z,13.4
2022-12-26T07:02:17.633Z,14.7
2022-12-26T07:03:24.630Z,14.4
2022-12-26T07:04:36.831Z,15.9
2022-12-26T07:05:43.750Z,14.8
2022-12-26T07:06:50.926Z,17.2
2022-12-26T07:07:58.068Z,16
2022-12-26T07:09:05.222Z,16.3
2022-12-26T07:10:12.569Z,16.5
2022-12-26T07:11:19.884Z,15.6
2022-12-26T07:12:26.742Z,18.3
2022-12-26T07:13:33.871Z,15.5
2022-12-26T07:14:41.046Z,15.4
2022-12-26T07:15:57.590Z,15.3
2022-12-26T07:17:04.320Z,15.7
2022-12-26T07:18:11.454Z,15.2
2022-12-26T07:19:18.584Z,15.7
2022-12-26T07:20:25.749Z,16.1
2022-12-26T07:21:40.286Z,14.7
2022-12-26T07:22:43.241Z,16.3
2022-12-26T07:23:50.197Z,16.5
2022-12-26T07:24:57.238Z,14.8
2022-12-26T07:26:04.357Z,16.6
2022-12-26T07:27:42.584Z,16.6
2022-12-26T07:28:49.602Z,16
2022-12-26T07:29:56.826Z,16.8
2022-12-26T07:31:04.333Z,17.7
2022-12-26T07:32:11.213Z,18
2022-12-26T07:35:38.257Z,15.9
2022-12-26T07:36:45.107Z,16.5
2022-12-26T07:37:52.263Z,21.2
2022-12-26T07:38:59.404Z,18.9
2022-12-26T07:40:27.190Z,18.9
2022-12-26T07:41:34.157Z,17.2
2022-12-26T07:42:46.065Z,17.4
2022-12-26T07:43:53.241Z,18.9
2022-12-26T07:45:00.390Z,20
2022-12-26T07:46:37.012Z,20
2022-12-26T07:47:44.093Z,19.7
2022-12-26T07:48:51.249Z,20.4
2022-12-26T07:49:58.417Z,21.1
2022-12-26T07:51:05.625Z,21.5
2022-12-26T07:55:25.189Z,19
2022-12-26T07:56:32.229Z,17.6
2022-12-26T07:57:48.393Z,20.2
2022-12-26T07:58:46.281Z,19.2
2022-12-26T08:00:46.546Z,19.2
2022-12-26T08:01:53.761Z,19.2
2022-12-26T08:03:06.730Z,20.5
2022-12-26T08:04:07.851Z,21.1
2022-12-26T08:05:14.996Z,20.7
2022-12-26T08:06:36.060Z,20.4
2022-12-26T08:07:43.162Z,18
2022-12-26T08:08:51.279Z,19.2
2022-12-26T08:09:57.209Z,18.8
2022-12-26T08:11:04.332Z,19.5
2022-12-26T08:12:49.400Z,19.5
2022-12-26T08:13:56.233Z,18.4
2022-12-26T08:15:03.367Z,18.6
2022-12-26T08:16:10.590Z,17.4
2022-12-26T08:17:17.821Z,19
2022-12-26T08:18:27.315Z,18.3
2022-12-26T08:19:34.231Z,18.3
2022-12-26T08:20:41.348Z,18
2022-12-26T08:21:48.187Z,17.4
2022-12-26T08:24:39.323Z,18.4
2022-12-26T08:25:46.168Z,18.1
2022-12-26T08:26:53.354Z,17.3
2022-12-26T08:28:00.517Z,17.7
2022-12-26T08:29:07.759Z,19.1
2022-12-26T08:30:24.158Z,18.5
2022-12-26T08:31:31.240Z,18.3
2022-12-26T08:32:39.626Z,17.9
2022-12-26T08:33:45.261Z,20.1
2022-12-26T08:34:52.540Z,21.4
2022-12-26T08:36:02.498Z,19.8
2022-12-26T08:37:10.115Z,19.9
2022-12-26T08:38:17.007Z,20.5
2022-12-26T08:39:24.211Z,20
2022-12-26T08:40:43.436Z,20.1
2022-12-26T08:41:39.350Z,21.2
2022-12-26T08:43:03.249Z,18.5
2022-12-26T08:44:25.556Z,20.7
2022-12-26T08:45:00.717Z,18.2
2022-12-26T08:46:07.985Z,20.2
2022-12-26T08:47:14.994Z,19.8
2022-12-26T08:48:22.252Z,18.6
2022-12-26T08:49:29.380Z,19.7
2022-12-26T08:50:40.934Z,20.9
2022-12-26T08:51:46.391Z,18.8
2022-12-26T08:52:53.567Z,19.6
2022-12-26T08:54:00.764Z,20.5
2022-12-26T08:55:07.942Z,20.6
2022-12-26T08:56:15.034Z,21.3
2022-12-26T08:57:22.335Z,19.9
2022-12-26T08:58:29.553Z,21.6
2022-12-26T08:59:36.539Z,22.2
2022-12-26T09:00:43.725Z,20.4
2022-12-26T09:01:50.724Z,21.9
2022-12-26T09:02:57.760Z,19.7
2022-12-26T09:04:05.037Z,19.1
2022-12-26T09:05:12.088Z,18.8
2022-12-26T09:06:19.300Z,20.2
2022-12-26T09:07:26.395Z,17.9
2022-12-26T09:08:35.275Z,19.6
2022-12-26T09:09:42.265Z,19.6
2022-12-26T09:10:49.194Z,19.6
2022-12-26T09:11:57.367Z,20.5
2022-12-26T09:13:04.527Z,17.1
2022-12-26T09:14:35.298Z,17.1
2022-12-26T09:15:42.321Z,19.5
2022-12-26T09:16:50.664Z,19.2
2022-12-26T09:17:56.362Z,20.8
2022-12-26T09:19:03.599Z,21.9
2022-12-26T09:20:27.489Z,19.4
2022-12-26T09:21:34.198Z,21.8
2022-12-26T09:22:41.440Z,20.3
2022-12-26T09:23:53.352Z,21.9
2022-12-26T09:25:00.565Z,22.3
2022-12-26T09:26:07.708Z,22.9
2022-12-26T09:27:17.379Z,21.3
2022-12-26T09:28:24.137Z,21.2
2022-12-26T09:29:31.182Z,20
2022-12-26T09:30:40.313Z,19.3
2022-12-26T09:31:47.341Z,20
2022-12-26T09:32:54.491Z,16.8
2022-12-26T09:34:01.623Z,17.4
2022-12-26T09:35:08.833Z,18.8
2022-12-26T09:36:28.721Z,18.2
2022-12-26T09:37:35.863Z,20.3
2022-12-26T09:38:43.050Z,18.4
2022-12-26T09:39:49.910Z,20.3
2022-12-26T09:40:57.209Z,19.7
2022-12-26T09:45:40.309Z,21
2022-12-26T09:46:55.663Z,20.2
2022-12-26T09:48:07.948Z,19.2
2022-12-26T09:49:15.180Z,19.8
2022-12-26T09:50:22.310Z,20.6
2022-12-26T09:51:29.489Z,17.6
2022-12-26T09:52:36.796Z,19.9
2022-12-26T09:53:46.425Z,19
2022-12-26T09:54:53.603Z,20.1
2022-12-26T09:56:01.274Z,18.6
2022-12-26T09:57:14.709Z,18.3
2022-12-26T09:58:18.179Z,16.6
2022-12-26T09:59:30.400Z,18.1
2022-12-26T10:00:37.636Z,18
2022-12-26T10:01:57.922Z,17.3
2022-12-26T10:03:04.946Z,17.7
2022-12-26T10:04:12.059Z,17.7
2022-12-26T10:05:27.585Z,18.4
2022-12-26T10:06:34.544Z,17.8
2022-12-26T10:07:41.789Z,20
2022-12-26T10:08:51.625Z,19
2022-12-26T10:10:09.389Z,17.8
2022-12-26T10:11:16.274Z,17.4
2022-12-26T10:12:29.255Z,18.1
2022-12-26T10:13:41.344Z,20
2022-12-26T10:14:54.335Z,19.4
2022-12-26T10:16:01.538Z,18.8
2022-12-26T10:17:11.173Z,19.6
2022-12-26T10:18:28.757Z,17.8
2022-12-26T10:19:40.854Z,18.4
2022-12-26T10:20:58.464Z,18.7
2022-12-26T10:22:15.752Z,21
2022-12-26T10:23:28.088Z,17.4
2022-12-26T10:24:45.681Z,17
2022-12-26T10:25:53.071Z,17.2
2022-12-26T10:26:59.981Z,16.4
2022-12-26T10:28:07.217Z,19.3
2022-12-26T10:29:19.635Z,16.1
2022-12-26T10:30:31.830Z,18.7
2022-12-26T10:31:39.113Z,17.7
2022-12-26T10:32:49.324Z,17.9
2022-12-26T10:34:02.160Z,16.3
2022-12-26T10:35:20.408Z,17.9
2022-12-26T10:36:35.409Z,15.6
2022-12-26T10:37:49.834Z,19.3
2022-12-26T10:38:57.089Z,19.8
2022-12-26T10:40:04.129Z,18
2022-12-26T10:41:21.583Z,18.6
2022-12-26T10:42:28.706Z,19.5
2022-12-26T10:43:46.364Z,20.4
2022-12-26T10:44:53.534Z,21.6
2022-12-26T10:46:00.683Z,20.4
2022-12-26T10:47:15.469Z,20.9
2022-12-26T10:48:28.316Z,20.1
2022-12-26T10:49:35.395Z,20.3
2022-12-26T10:50:42.532Z,21.7
2022-12-26T10:51:49.568Z,21.6
2022-12-26T10:52:56.705Z,24.8
2022-12-26T10:54:03.902Z,22.4
2022-12-26T10:55:27.798Z,20.5
2022-12-26T10:56:25.748Z,21.7
2022-12-26T10:57:32.836Z,20.8
2022-12-26T10:58:40.893Z,23.1
2022-12-26T10:59:47.902Z,21.6
2022-12-26T11:00:55.062Z,25.1
2022-12-26T11:02:12.544Z,26.8
2022-12-26T11:03:19.952Z,25.5
2022-12-26T11:04:44.905Z,26.8
2022-12-26T11:06:41.084Z,25.2
2022-12-26T11:07:48.080Z,25.7
2022-12-26T11:08:55.164Z,26.2
2022-12-26T11:10:02.484Z,25
2022-12-26T11:11:09.827Z,25.5
2022-12-26T11:12:16.693Z,20.3
2022-12-26T11:13:24.527Z,18.9
2022-12-26T11:14:33.931Z,20
2022-12-26T11:15:42.149Z,21.4
2022-12-26T11:16:51.884Z,21.7
2022-12-26T11:17:58.921Z,19.5
2022-12-26T11:19:11.216Z,22.1
2022-12-26T11:20:28.507Z,21.8
2022-12-26T11:21:35.751Z,21.7
2022-12-26T11:22:42.889Z,20.6
2022-12-26T11:23:49.861Z,22.5
2022-12-26T11:24:57.097Z,21.7
2022-12-26T11:26:12.276Z,17.4
2022-12-26T11:27:22.461Z,21.8
2022-12-26T11:28:29.813Z,21
2022-12-26T11:29:36.822Z,22.7
2022-12-26T11:30:43.880Z,21
2022-12-26T11:31:51.285Z,20.6
2022-12-26T11:33:07.077Z,22.9
2022-12-26T11:34:10.662Z,22.3
2022-12-26T11:35:18.096Z,22
2022-12-26T11:36:24.983Z,22
2022-12-26T11:37:32.140Z,25.7
2022-12-26T11:38:45.127Z,23.3
2022-12-26T11:39:48.786Z,23.6
2022-12-26T11:40:55.932Z,23.9
2022-12-26T11:42:11.280Z,24
2022-12-26T11:43:18.539Z,22.8
2022-12-26T11:44:25.672Z,22.3
2022-12-26T11:45:38.843Z,19.7
2022-12-26T11:46:43.151Z,22
2022-12-26T11:47:55.760Z,20.4
2022-12-26T11:49:02.656Z,19.5
2022-12-26T11:50:09.740Z,20.3
2022-12-26T11:51:16.993Z,19.7
2022-12-26T11:52:24.047Z,21.7
2022-12-26T11:53:33.817Z,19.8
2022-12-26T11:54:40.989Z,20.5
2022-12-26T11:55:50.912Z,18.8
2022-12-26T11:57:00.609Z,21.4
2022-12-26T11:58:15.997Z,23.2
2022-12-26T11:59:23.147Z,22.5
2022-12-26T12:00:30.334Z,20.4
2022-12-26T12:01:42.677Z,20.6
2022-12-26T12:02:49.533Z,21.9
2022-12-26T12:03:56.559Z,21.9
2022-12-26T12:05:03.770Z,21.2
2022-12-26T12:06:16.120Z,22.5
2022-12-26T12:07:31.325Z,24.1
2022-12-26T12:08:41.493Z,23.8
2022-12-26T12:09:58.592Z,19.6
2022-12-26T12:11:11.332Z,20
2022-12-26T12:12:28.740Z,21.4
2022-12-26T12:13:35.894Z,21.3
2022-12-26T12:14:54.860Z,19.7
2022-12-26T12:16:10.927Z,20.8
2022-12-26T12:17:26.124Z,21
2022-12-26T12:18:38.514Z,19.9
2022-12-26T12:19:56.284Z,20.3
2022-12-26T12:21:08.257Z,22.3
2022-12-26T12:22:15.488Z,20.3
2022-12-26T12:23:28.079Z,18.8
2022-12-26T12:24:40.563Z,21.2
2022-12-26T12:25:55.611Z,19.2
2022-12-26T12:27:05.121Z,20.8
2022-12-26T12:28:09.907Z,20.2
2022-12-26T12:29:27.362Z,17.5
2022-12-26T12:30:39.524Z,17.5
2022-12-26T12:31:52.101Z,17.5
2022-12-26T12:33:09.453Z,17.5
2022-12-26T12:34:22.502Z,17.5
2022-12-26T12:35:34.542Z,17.5
2022-12-26T12:36:49.612Z,17.5
2022-12-26T12:37:56.661Z,17.5
2022-12-26T12:39:08.990Z,17.5
2022-12-26T12:40:19.269Z,17.5
2022-12-26T12:41:31.936Z,17.5
2022-12-26T12:42:49.596Z,17.5
2022-12-26T12:43:59.800Z,17.5
2022-12-26T12:45:12.270Z,17.5
2022-12-26T12:46:24.384Z,17.5
2022-12-26T12:47:36.595Z,17.5
2022-12-26T12:48:46.501Z,17.5
2022-12-26T12:50:04.042Z,15.9
2022-12-26T12:51:19.337Z,15.7
2022-12-26T12:52:36.817Z,16
2022-12-26T12:53:49.190Z,16
2022-12-26T12:55:06.500Z,16
2022-12-26T12:56:18.872Z,16
2022-12-26T12:57:31.214Z,15.6
2022-12-26T12:58:38.521Z,16.1
2022-12-26T12:59:50.817Z,17.1
2022-12-26T13:01:03.167Z,16.7
2022-12-26T13:02:20.591Z,16.3
2022-12-26T13:03:31.515Z,14.1
2022-12-26T13:04:43.522Z,15.5
2022-12-26T13:05:50.471Z,16.4
2022-12-26T13:07:07.729Z,14.2
2022-12-26T13:08:14.825Z,14.2
2022-12-26T13:09:21.995Z,14.2
2022-12-26T13:10:35.199Z,14.2
2022-12-26T13:11:41.986Z,14.2
2022-12-26T13:12:48.784Z,14.2
2022-12-26T13:13:56.113Z,14.2
2022-12-26T13:15:13.372Z,14.6
2022-12-26T13:16:28.330Z,14.7
2022-12-26T13:17:35.456Z,15
2022-12-26T13:18:42.628Z,15.3
2022-12-26T13:19:53.633Z,17.5
2022-12-26T13:21:10.108Z,14.7
2022-12-26T13:22:17.053Z,16.3
2022-12-26T13:23:24.242Z,13.3
2022-12-26T13:24:39.608Z,13.6
2022-12-26T13:25:46.501Z,13.6
2022-12-26T13:26:53.555Z,13.6
2022-12-26T13:28:06.875Z,13.6
2022-12-26T13:29:14.019Z,13.6
2022-12-26T13:30:21.210Z,13.6
2022-12-26T13:31:28.298Z,13.6
2022-12-26T13:32:40.749Z,13.6
2022-12-26T13:33:45.119Z,13.6
2022-12-26T13:34:52.056Z,13.6
2022-12-26T13:35:59.333Z,14.1
2022-12-26T13:37:06.640Z,16.4
2022-12-26T13:38:13.657Z,14
2022-12-26T13:39:20.792Z,14
2022-12-26T13:40:30.950Z,14
2022-12-26T13:41:38.151Z,14.7
2022-12-26T13:42:55.855Z,16.8
2022-12-26T13:44:13.175Z,14
2022-12-26T13:45:23.391Z,15.4
2022-12-26T13:46:38.278Z,15.7
2022-12-26T13:47:45.530Z,15.2
2022-12-26T13:48:52.308Z,19.2
2022-12-26T13:49:59.490Z,18.6
2022-12-26T13:51:16.879Z,17.9
2022-12-26T13:52:34.175Z,20.4
2022-12-26T13:53:41.367Z,22.2
2022-12-26T13:54:48.305Z,19.9
2022-12-26T13:55:56.555Z,19.1
2022-12-26T13:57:03.608Z,19.7
2022-12-26T13:58:20.947Z,20.9
2022-12-26T13:59:34.624Z,19.5
2022-12-26T14:00:45.281Z,22.2
2022-12-26T14:01:55.648Z,21.9
2022-12-26T14:03:20.391Z,21
2022-12-26T14:04:25.679Z,21
2022-12-26T14:05:37.993Z,20.8
2022-12-26T14:06:55.695Z,17.8
2022-12-26T14:08:08.067Z,21.4
2022-12-26T14:09:25.152Z,16.9
2022-12-26T14:10:44.342Z,18
2022-12-26T14:11:59.704Z,20.2
2022-12-26T14:13:17.107Z,19.5
2022-12-26T14:14:34.428Z,18.8
2022-12-26T14:15:52.148Z,20.7
2022-12-26T14:17:04.378Z,23.5
2022-12-26T14:18:14.048Z,23.3
2022-12-26T14:19:26.285Z,21.5
2022-12-26T14:20:39.675Z,20.3
2022-12-26T14:21:51.371Z,19.3
2022-12-26T14:23:04.056Z,22.2
2022-12-26T14:24:16.173Z,24.7
2022-12-26T14:25:28.391Z,22.4
2022-12-26T14:26:35.619Z,21.8
2022-12-26T14:27:55.755Z,20.4
2022-12-26T14:29:05.462Z,26.4
2022-12-26T14:30:15.713Z,22
2022-12-26T14:31:25.385Z,18.5
2022-12-26T14:32:40.275Z,18.6
2022-12-26T14:33:52.731Z,18.8
2022-12-26T14:35:05.343Z,17.9
2022-12-26T14:36:20.302Z,18.6
2022-12-26T14:37:38.017Z,17.1
2022-12-26T14:38:50.203Z,16.6
2022-12-26T14:39:59.999Z,16.7
2022-12-26T14:41:17.281Z,17.3
2022-12-26T14:42:29.615Z,16.6
2022-12-26T14:43:46.974Z,16.3
2022-12-26T14:44:53.867Z,17.5
2022-12-26T14:46:01.276Z,15.5
2022-12-26T14:47:18.962Z,20.2
2022-12-26T14:48:36.274Z,18.1
2022-12-26T14:49:43.576Z,16.4
2022-12-26T14:50:50.915Z,17.7
2022-12-26T14:52:05.706Z,17.7
2022-12-26T14:53:23.128Z,18
2022-12-26T14:54:37.950Z,18
2022-12-26T14:55:45.131Z,24.7
2022-12-26T14:56:52.459Z,23
2022-12-26T14:58:00.422Z,22.5
2022-12-26T14:59:15.411Z,18.5
2022-12-26T15:00:30.272Z,15.4
2022-12-26T15:01:37.565Z,18.2
2022-12-26T15:02:44.752Z,19.4
2022-12-26T15:03:59.664Z,16.1
2022-12-26T15:05:12.803Z,17.1
2022-12-26T15:06:23.312Z,22.7
2022-12-26T15:07:35.352Z,20.8
2022-12-26T15:08:52.511Z,20.3
2022-12-26T15:10:09.895Z,18.5
2022-12-26T15:11:27.271Z,18.1
2022-12-26T15:12:44.661Z,20
2022-12-26T15:14:02.404Z,18.6
2022-12-26T15:15:19.669Z,17.2
2022-12-26T15:16:34.531Z,18.5
2022-12-26T15:17:46.790Z,17.7
2022-12-26T15:19:04.374Z,20.5
2022-12-26T15:20:21.772Z,20
2022-12-26T15:21:40.410Z,19
2022-12-26T15:22:58.580Z,21.3
2022-12-26T15:24:15.883Z,19
2022-12-26T15:25:28.196Z,19.7
2022-12-26T15:26:43.332Z,23.5
2022-12-26T15:27:58.396Z,22
2022-12-26T15:29:13.762Z,18.8
2022-12-26T15:30:29.225Z,20.2
2022-12-26T15:31:41.358Z,21.1
2022-12-26T15:32:51.257Z,19.2
2022-12-26T15:34:04.082Z,24.7
2022-12-26T15:35:18.834Z,24.8
2022-12-26T15:36:33.718Z,22.5
2022-12-26T15:37:48.747Z,26.1
2022-12-26T15:39:03.911Z,22.4
2022-12-26T15:40:16.537Z,24.1
2022-12-26T15:41:23.617Z,25.5
2022-12-26T15:42:36.258Z,25.9
2022-12-26T15:43:54.592Z,26.8
2022-12-26T15:45:10.194Z,25
2022-12-26T15:46:25.427Z,19.9
2022-12-26T15:47:37.840Z,24
2022-12-26T15:48:53.337Z,20.8
2022-12-26T15:50:05.540Z,22.4
2022-12-26T15:51:20.191Z,22.8
2022-12-26T15:52:37.549Z,17.5
2022-12-26T15:53:54.846Z,17.4
2022-12-26T15:55:06.958Z,16.8
2022-12-26T15:56:24.206Z,16.5
2022-12-26T15:57:39.349Z,18.3
2022-12-26T15:58:51.601Z,19.4
2022-12-26T16:00:07.115Z,18.9
2022-12-26T16:01:14.569Z,19.2
2022-12-26T16:02:26.833Z,19.5
2022-12-26T16:03:36.334Z,18.8
2022-12-26T16:04:48.811Z,18.5
2022-12-26T16:06:01.312Z,19.2
2022-12-26T16:07:13.406Z,17.7
2022-12-26T16:08:25.594Z,17.1
2022-12-26T16:09:43.104Z,17.9
2022-12-26T16:10:58.836Z,17.6
2022-12-26T16:12:11.415Z,17.5
2022-12-26T16:13:26.641Z,17.2
2022-12-26T16:14:33.665Z,20.8
2022-12-26T16:15:41.171Z,21.6
2022-12-26T16:16:48.322Z,20.9
2022-12-26T16:17:55.454Z,19.7
2022-12-26T16:19:12.825Z,17.5
2022-12-26T16:20:25.942Z,18.5
2022-12-26T16:21:39.481Z,18.7
2022-12-26T16:22:51.966Z,20.2
2022-12-26T16:23:59.180Z,17.4
2022-12-26T16:25:06.292Z,17
2022-12-26T16:26:18.590Z,15.2
2022-12-26T16:27:28.765Z,16.9
2022-12-26T16:28:35.974Z,16.3
2022-12-26T16:29:43.061Z,16
2022-12-26T16:30:50.219Z,17.2
2022-12-26T16:31:57.163Z,16
2022-12-26T16:33:06.886Z,18.3
2022-12-26T16:34:13.976Z,18.7
2022-12-26T16:35:21.268Z,18.3
2022-12-26T16:36:28.452Z,16.1
2022-12-26T16:37:36.346Z,18.4
2022-12-26T16:38:43.289Z,17
2022-12-26T16:39:51.767Z,17.6
2022-12-26T16:41:09.066Z,19.3
2022-12-26T16:42:21.428Z,18.2
2022-12-26T16:43:31.031Z,20.2
2022-12-26T16:44:39.008Z,20.6
2022-12-26T16:45:45.861Z,19.3
2022-12-26T16:46:52.778Z,17.7
2022-12-26T16:47:59.981Z,20.4
2022-12-26T16:49:10.991Z,19.1
2022-12-26T16:50:18.228Z,18.6
2022-12-26T16:51:25.479Z,17
2022-12-26T16:52:46.625Z,17.9
2022-12-26T16:53:49.550Z,17.4